sensor_id;sensor_type;location;lat;lon;timestamp;pressure;altitude;pressure_sealevel;temperature;humidity
19114;BME280;9689;51.052;13.772;2023-02-11T00:03:08;102021.84;;;1.90;68.61
19114;BME280;9689;51.052;13.772;2023-02-11T00:08:10;102017.53;;;1.89;69.00
19114;BME280;9689;51.052;13.772;2023-02-11T00:13:15;102000.34;;;1.88;69.51
19114;BME280;9689;51.052;13.772;2023-02-11T00:18:16;101992.09;;;1.95;69.71
19114;BME280;9689;51.052;13.772;2023-02-11T00:23:18;101991.16;;;2.14;69.37
19114;BME280;9689;51.052;13.772;2023-02-11T00:28:18;101997.59;;;2.25;68.60
19114;BME280;9689;51.052;13.772;2023-02-11T00:33:19;101980.06;;;2.36;68.92
19114;BME280;9689;51.052;13.772;2023-02-11T00:38:21;101962.00;;;2.57;68.38
19114;BME280;9689;51.052;13.772;2023-02-11T00:43:22;101958.50;;;2.55;68.40
19114;BME280;9689;51.052;13.772;2023-02-11T00:48:23;101946.56;;;2.57;68.73
19114;BME280;9689;51.052;13.772;2023-02-11T00:53:25;101926.88;;;2.58;69.10
19114;BME280;9689;51.052;13.772;2023-02-11T00:58:26;101918.47;;;2.62;69.03
19114;BME280;9689;51.052;13.772;2023-02-11T01:03:27;101914.09;;;2.83;68.31
19114;BME280;9689;51.052;13.772;2023-02-11T01:08:29;101895.72;;;2.96;67.91
19114;BME280;9689;51.052;13.772;2023-02-11T01:13:33;101889.03;;;3.01;67.73
19114;BME280;9689;51.052;13.772;2023-02-11T01:18:36;101895.34;;;3.09;67.42
19114;BME280;9689;51.052;13.772;2023-02-11T01:23:38;101913.84;;;2.99;67.85
19114;BME280;9689;51.052;13.772;2023-02-11T01:28:39;101916.16;;;3.16;67.62
19114;BME280;9689;51.052;13.772;2023-02-11T01:33:40;101911.00;;;3.39;66.75
19114;BME280;9689;51.052;13.772;2023-02-11T01:38:42;101921.88;;;3.31;67.21
19114;BME280;9689;51.052;13.772;2023-02-11T01:43:46;101905.31;;;3.48;66.87
19114;BME280;9689;51.052;13.772;2023-02-11T01:48:49;101898.22;;;3.43;66.63
19114;BME280;9689;51.052;13.772;2023-02-11T01:53:54;101894.00;;;3.45;66.49
19114;BME280;9689;51.052;13.772;2023-02-11T01:59:19;101882.66;;;3.39;66.79
19114;BME280;9689;51.052;13.772;2023-02-11T02:04:22;101876.16;;;3.51;66.80
19114;BME280;9689;51.052;13.772;2023-02-11T02:09:35;101871.16;;;3.55;66.66
19114;BME280;9689;51.052;13.772;2023-02-11T02:14:38;101871.09;;;3.54;66.75
19114;BME280;9689;51.052;13.772;2023-02-11T02:20:13;101864.22;;;3.53;66.58
19114;BME280;9689;51.052;13.772;2023-02-11T02:25:35;101872.75;;;3.52;66.70
19114;BME280;9689;51.052;13.772;2023-02-11T02:31:06;101877.44;;;3.63;66.67
19114;BME280;9689;51.052;13.772;2023-02-11T02:36:23;101862.19;;;3.69;66.31
19114;BME280;9689;51.052;13.772;2023-02-11T02:41:29;101844.31;;;3.74;66.71
19114;BME280;9689;51.052;13.772;2023-02-11T02:46:32;101830.25;;;3.91;66.22
19114;BME280;9689;51.052;13.772;2023-02-11T02:51:47;101831.97;;;3.91;66.40
19114;BME280;9689;51.052;13.772;2023-02-11T02:56:56;101825.31;;;3.99;66.06
19114;BME280;9689;51.052;13.772;2023-02-11T03:02:04;101814.06;;;3.97;66.03
19114;BME280;9689;51.052;13.772;2023-02-11T03:07:18;101821.03;;;4.00;66.07
19114;BME280;9689;51.052;13.772;2023-02-11T03:12:21;101832.69;;;4.15;65.08
19114;BME280;9689;51.052;13.772;2023-02-11T03:17:24;101847.50;;;4.21;64.33
19114;BME280;9689;51.052;13.772;2023-02-11T03:22:32;101838.28;;;4.29;64.18
19114;BME280;9689;51.052;13.772;2023-02-11T03:27:38;101819.03;;;4.46;64.00
19114;BME280;9689;51.052;13.772;2023-02-11T03:32:43;101796.66;;;4.47;63.73
19114;BME280;9689;51.052;13.772;2023-02-11T03:37:51;101807.06;;;4.50;63.53
19114;BME280;9689;51.052;13.772;2023-02-11T03:42:56;101780.22;;;4.43;64.01
19114;BME280;9689;51.052;13.772;2023-02-11T03:48:00;101774.44;;;4.52;63.69
19114;BME280;9689;51.052;13.772;2023-02-11T03:53:03;101772.63;;;4.49;64.09
19114;BME280;9689;51.052;13.772;2023-02-11T03:58:04;101749.50;;;4.52;64.40
19114;BME280;9689;51.052;13.772;2023-02-11T04:03:05;101762.97;;;4.42;65.00
19114;BME280;9689;51.052;13.772;2023-02-11T04:08:08;101776.41;;;4.61;63.94
19114;BME280;9689;51.052;13.772;2023-02-11T04:13:08;101747.19;;;4.62;64.45
19114;BME280;9689;51.052;13.772;2023-02-11T04:18:09;101745.50;;;4.64;64.63
19114;BME280;9689;51.052;13.772;2023-02-11T04:23:11;101758.50;;;4.67;64.35
19114;BME280;9689;51.052;13.772;2023-02-11T04:28:12;101764.38;;;4.61;65.25
19114;BME280;9689;51.052;13.772;2023-02-11T04:33:13;101761.09;;;4.68;64.77
19114;BME280;9689;51.052;13.772;2023-02-11T04:38:15;101775.88;;;4.72;64.82
19114;BME280;9689;51.052;13.772;2023-02-11T04:43:16;101776.78;;;4.74;64.35
19114;BME280;9689;51.052;13.772;2023-02-11T04:48:16;101801.63;;;4.69;65.17
19114;BME280;9689;51.052;13.772;2023-02-11T04:53:18;101783.31;;;4.62;64.74
19114;BME280;9689;51.052;13.772;2023-02-11T04:58:19;101789.25;;;4.59;65.30
19114;BME280;9689;51.052;13.772;2023-02-11T05:03:20;101784.94;;;4.58;65.62
19114;BME280;9689;51.052;13.772;2023-02-11T05:08:22;101798.47;;;4.51;66.33
19114;BME280;9689;51.052;13.772;2023-02-11T05:13:23;101788.50;;;4.33;69.08
19114;BME280;9689;51.052;13.772;2023-02-11T05:18:24;101799.16;;;4.15;70.16
19114;BME280;9689;51.052;13.772;2023-02-11T05:23:26;101781.69;;;4.07;71.11
19114;BME280;9689;51.052;13.772;2023-02-11T05:28:27;101789.31;;;4.02;71.63
19114;BME280;9689;51.052;13.772;2023-02-11T05:33:27;101778.25;;;4.06;70.83
19114;BME280;9689;51.052;13.772;2023-02-11T05:38:29;101790.19;;;4.03;71.06
19114;BME280;9689;51.052;13.772;2023-02-11T05:43:30;101766.09;;;4.02;71.51
19114;BME280;9689;51.052;13.772;2023-02-11T05:48:33;101771.81;;;3.92;72.84
19114;BME280;9689;51.052;13.772;2023-02-11T05:53:35;101774.44;;;3.93;73.11
19114;BME280;9689;51.052;13.772;2023-02-11T05:58:36;101781.38;;;3.96;72.92
19114;BME280;9689;51.052;13.772;2023-02-11T06:03:38;101774.56;;;3.98;73.77
19114;BME280;9689;51.052;13.772;2023-02-11T06:08:40;101763.28;;;3.94;73.69
19114;BME280;9689;51.052;13.772;2023-02-11T06:13:41;101755.31;;;3.87;74.02
19114;BME280;9689;51.052;13.772;2023-02-11T06:18:42;101759.09;;;3.98;73.56
19114;BME280;9689;51.052;13.772;2023-02-11T06:23:44;101766.75;;;3.95;72.76
19114;BME280;9689;51.052;13.772;2023-02-11T06:28:45;101743.50;;;3.93;73.75
19114;BME280;9689;51.052;13.772;2023-02-11T06:33:45;101742.78;;;3.99;73.29
19114;BME280;9689;51.052;13.772;2023-02-11T06:38:50;101745.22;;;3.94;72.89
19114;BME280;9689;51.052;13.772;2023-02-11T06:43:51;101742.25;;;4.09;72.19
19114;BME280;9689;51.052;13.772;2023-02-11T06:48:52;101737.00;;;4.08;71.90
19114;BME280;9689;51.052;13.772;2023-02-11T06:53:54;101743.19;;;4.13;72.08
19114;BME280;9689;51.052;13.772;2023-02-11T06:58:55;101737.41;;;4.20;71.41
19114;BME280;9689;51.052;13.772;2023-02-11T07:03:56;101733.75;;;4.13;71.62
19114;BME280;9689;51.052;13.772;2023-02-11T07:08:58;101724.56;;;4.23;72.08
19114;BME280;9689;51.052;13.772;2023-02-11T07:14:02;101738.25;;;4.20;72.68
19114;BME280;9689;51.052;13.772;2023-02-11T07:19:03;101733.09;;;4.20;73.59
19114;BME280;9689;51.052;13.772;2023-02-11T07:24:06;101730.53;;;4.20;74.47
19114;BME280;9689;51.052;13.772;2023-02-11T07:29:09;101738.44;;;4.27;74.53
19114;BME280;9689;51.052;13.772;2023-02-11T07:34:10;101753.59;;;4.16;75.46
19114;BME280;9689;51.052;13.772;2023-02-11T07:39:12;101763.91;;;4.16;75.71
19114;BME280;9689;51.052;13.772;2023-02-11T07:44:13;101761.56;;;4.23;75.40
19114;BME280;9689;51.052;13.772;2023-02-11T07:49:14;101752.06;;;4.22;75.33
19114;BME280;9689;51.052;13.772;2023-02-11T07:54:16;101759.09;;;4.27;76.01
19114;BME280;9689;51.052;13.772;2023-02-11T07:59:17;101753.56;;;4.14;76.52
19114;BME280;9689;51.052;13.772;2023-02-11T08:04:18;101756.38;;;4.22;76.00
19114;BME280;9689;51.052;13.772;2023-02-11T08:09:20;101748.59;;;4.20;76.24
19114;BME280;9689;51.052;13.772;2023-02-11T08:14:20;101747.97;;;4.29;75.79
19114;BME280;9689;51.052;13.772;2023-02-11T08:19:23;101756.84;;;4.39;75.03
19114;BME280;9689;51.052;13.772;2023-02-11T08:24:26;101752.91;;;4.51;73.66
19114;BME280;9689;51.052;13.772;2023-02-11T08:29:27;101750.31;;;4.51;73.45
19114;BME280;9689;51.052;13.772;2023-02-11T08:34:28;101748.78;;;4.58;73.09
19114;BME280;9689;51.052;13.772;2023-02-11T08:39:30;101740.09;;;4.54;72.67
19114;BME280;9689;51.052;13.772;2023-02-11T08:44:31;101734.19;;;4.60;71.93
19114;BME280;9689;51.052;13.772;2023-02-11T08:49:31;101734.47;;;4.69;71.83
19114;BME280;9689;51.052;13.772;2023-02-11T08:54:33;101742.31;;;4.72;71.26
19114;BME280;9689;51.052;13.772;2023-02-11T08:59:34;101751.09;;;4.79;71.16
19114;BME280;9689;51.052;13.772;2023-02-11T09:04:35;101744.88;;;4.72;70.37
19114;BME280;9689;51.052;13.772;2023-02-11T09:09:37;101752.91;;;4.83;70.39
19114;BME280;9689;51.052;13.772;2023-02-11T09:14:38;101764.31;;;4.91;70.47
19114;BME280;9689;51.052;13.772;2023-02-11T09:19:40;101750.66;;;4.95;70.17
19114;BME280;9689;51.052;13.772;2023-02-11T09:24:42;101759.31;;;4.97;69.51
19114;BME280;9689;51.052;13.772;2023-02-11T09:29:43;101765.25;;;4.95;69.96
19114;BME280;9689;51.052;13.772;2023-02-11T09:34:44;101777.16;;;4.88;70.20
19114;BME280;9689;51.052;13.772;2023-02-11T09:39:46;101778.03;;;4.89;70.49
19114;BME280;9689;51.052;13.772;2023-02-11T09:44:47;101776.38;;;4.91;70.65
19114;BME280;9689;51.052;13.772;2023-02-11T09:49:50;101775.50;;;4.90;70.87
19114;BME280;9689;51.052;13.772;2023-02-11T09:54:56;101769.00;;;5.04;70.71
19114;BME280;9689;51.052;13.772;2023-02-11T09:59:57;101766.19;;;4.97;71.66
19114;BME280;9689;51.052;13.772;2023-02-11T10:05:10;101760.22;;;4.99;71.11
19114;BME280;9689;51.052;13.772;2023-02-11T10:10:20;101768.47;;;5.19;70.83
19114;BME280;9689;51.052;13.772;2023-02-11T10:15:35;101768.88;;;5.34;70.88
19114;BME280;9689;51.052;13.772;2023-02-11T10:20:47;101756.53;;;5.23;70.90
19114;BME280;9689;51.052;13.772;2023-02-11T10:25:53;101745.84;;;5.44;70.18
19114;BME280;9689;51.052;13.772;2023-02-11T10:30:57;101759.44;;;5.36;70.65
19114;BME280;9689;51.052;13.772;2023-02-11T10:35:59;101737.88;;;5.36;69.95
19114;BME280;9689;51.052;13.772;2023-02-11T10:41:01;101758.88;;;5.48;70.56
19114;BME280;9689;51.052;13.772;2023-02-11T10:46:03;101763.56;;;5.64;69.56
19114;BME280;9689;51.052;13.772;2023-02-11T10:51:16;101751.41;;;5.60;69.23
19114;BME280;9689;51.052;13.772;2023-02-11T10:56:24;101738.63;;;5.66;69.84
19114;BME280;9689;51.052;13.772;2023-02-11T11:01:40;101729.06;;;5.64;69.66
19114;BME280;9689;51.052;13.772;2023-02-11T11:06:43;101738.94;;;5.80;69.85
19114;BME280;9689;51.052;13.772;2023-02-11T11:11:51;101722.50;;;5.78;69.45
19114;BME280;9689;51.052;13.772;2023-02-11T11:16:53;101733.78;;;5.82;69.50
19114;BME280;9689;51.052;13.772;2023-02-11T11:21:55;101747.84;;;5.91;69.96
19114;BME280;9689;51.052;13.772;2023-02-11T11:26:59;101737.72;;;6.01;70.12
19114;BME280;9689;51.052;13.772;2023-02-11T11:32:02;101728.97;;;5.97;69.73
19114;BME280;9689;51.052;13.772;2023-02-11T11:37:10;101726.41;;;5.99;70.71
19114;BME280;9689;51.052;13.772;2023-02-11T11:42:27;101729.13;;;6.03;69.72
19114;BME280;9689;51.052;13.772;2023-02-11T11:47:31;101731.88;;;6.11;69.74
19114;BME280;9689;51.052;13.772;2023-02-11T11:52:38;101739.72;;;6.15;69.62
19114;BME280;9689;51.052;13.772;2023-02-11T11:57:42;101741.44;;;6.15;69.63
19114;BME280;9689;51.052;13.772;2023-02-11T12:03:01;101744.03;;;6.15;70.08
19114;BME280;9689;51.052;13.772;2023-02-11T12:08:15;101749.38;;;6.22;70.13
19114;BME280;9689;51.052;13.772;2023-02-11T12:13:37;101733.75;;;6.18;70.39
19114;BME280;9689;51.052;13.772;2023-02-11T12:19:02;101726.91;;;6.20;69.78
19114;BME280;9689;51.052;13.772;2023-02-11T12:24:15;101727.53;;;6.10;70.79
19114;BME280;9689;51.052;13.772;2023-02-11T12:29:28;101724.94;;;6.08;72.06
19114;BME280;9689;51.052;13.772;2023-02-11T12:40:08;101721.16;;;5.94;72.83
19114;BME280;9689;51.052;13.772;2023-02-11T12:45:22;101720.28;;;5.92;73.00
19114;BME280;9689;51.052;13.772;2023-02-11T12:50:29;101738.25;;;5.89;73.41
19114;BME280;9689;51.052;13.772;2023-02-11T12:55:37;101722.56;;;5.81;73.56
19114;BME280;9689;51.052;13.772;2023-02-11T13:00:45;101732.09;;;5.82;74.65
19114;BME280;9689;51.052;13.772;2023-02-11T13:05:51;101713.19;;;5.85;74.71
19114;BME280;9689;51.052;13.772;2023-02-11T13:10:54;101708.94;;;5.88;74.46
19114;BME280;9689;51.052;13.772;2023-02-11T13:16:01;101704.78;;;5.95;74.15
19114;BME280;9689;51.052;13.772;2023-02-11T13:21:18;101689.03;;;5.86;74.59
19114;BME280;9689;51.052;13.772;2023-02-11T13:26:26;101689.25;;;5.93;73.85
19114;BME280;9689;51.052;13.772;2023-02-11T13:31:31;101679.78;;;5.94;74.21
19114;BME280;9689;51.052;13.772;2023-02-11T13:36:32;101685.03;;;5.99;74.57
19114;BME280;9689;51.052;13.772;2023-02-11T13:41:36;101701.38;;;5.96;74.58
19114;BME280;9689;51.052;13.772;2023-02-11T13:46:51;101700.75;;;6.08;75.04
19114;BME280;9689;51.052;13.772;2023-02-11T13:51:54;101681.94;;;6.16;73.66
19114;BME280;9689;51.052;13.772;2023-02-11T13:57:21;101681.03;;;6.14;74.73
19114;BME280;9689;51.052;13.772;2023-02-11T14:02:28;101690.69;;;6.21;74.59
19114;BME280;9689;51.052;13.772;2023-02-11T14:08:13;101713.06;;;6.19;75.32
19114;BME280;9689;51.052;13.772;2023-02-11T14:13:32;101706.88;;;6.11;74.53
19114;BME280;9689;51.052;13.772;2023-02-11T14:19:01;101713.66;;;6.06;74.41
19114;BME280;9689;51.052;13.772;2023-02-11T14:24:44;101708.47;;;6.06;74.94
19114;BME280;9689;51.052;13.772;2023-02-11T14:29:53;101703.19;;;6.00;74.27
19114;BME280;9689;51.052;13.772;2023-02-11T14:35:04;101700.59;;;6.00;74.88
19114;BME280;9689;51.052;13.772;2023-02-11T14:40:16;101694.84;;;6.15;74.09
19114;BME280;9689;51.052;13.772;2023-02-11T14:45:21;101706.91;;;6.13;74.48
19114;BME280;9689;51.052;13.772;2023-02-11T14:50:25;101716.41;;;6.14;74.36
19114;BME280;9689;51.052;13.772;2023-02-11T14:55:29;101711.34;;;6.18;74.14
19114;BME280;9689;51.052;13.772;2023-02-11T15:00:31;101698.31;;;6.15;73.51
19114;BME280;9689;51.052;13.772;2023-02-11T15:05:34;101698.44;;;6.21;73.90
19114;BME280;9689;51.052;13.772;2023-02-11T15:10:40;101715.75;;;6.24;74.05
19114;BME280;9689;51.052;13.772;2023-02-11T15:15:42;101707.94;;;6.21;72.92
19114;BME280;9689;51.052;13.772;2023-02-11T15:20:46;101716.50;;;6.18;73.58
19114;BME280;9689;51.052;13.772;2023-02-11T15:25:48;101709.78;;;6.27;74.00
19114;BME280;9689;51.052;13.772;2023-02-11T15:30:59;101707.25;;;6.30;74.61
19114;BME280;9689;51.052;13.772;2023-02-11T15:36:02;101711.69;;;6.35;74.05
19114;BME280;9689;51.052;13.772;2023-02-11T15:41:04;101721.19;;;6.36;73.88
19114;BME280;9689;51.052;13.772;2023-02-11T15:46:08;101717.50;;;6.25;73.81
19114;BME280;9689;51.052;13.772;2023-02-11T15:51:24;101720.19;;;6.30;74.19
19114;BME280;9689;51.052;13.772;2023-02-11T15:56:29;101716.59;;;6.23;74.38
19114;BME280;9689;51.052;13.772;2023-02-11T16:01:33;101728.78;;;6.27;75.15
19114;BME280;9689;51.052;13.772;2023-02-11T16:06:38;101730.31;;;6.17;75.21
19114;BME280;9689;51.052;13.772;2023-02-11T16:11:53;101729.38;;;6.15;75.80
19114;BME280;9689;51.052;13.772;2023-02-11T16:16:57;101739.66;;;6.11;76.70
19114;BME280;9689;51.052;13.772;2023-02-11T16:22:06;101749.81;;;6.03;76.63
19114;BME280;9689;51.052;13.772;2023-02-11T16:27:18;101762.66;;;5.99;77.53
19114;BME280;9689;51.052;13.772;2023-02-11T16:32:22;101763.22;;;5.87;77.57
19114;BME280;9689;51.052;13.772;2023-02-11T16:37:25;101766.44;;;5.77;78.77
19114;BME280;9689;51.052;13.772;2023-02-11T16:42:26;101770.41;;;5.62;78.87
19114;BME280;9689;51.052;13.772;2023-02-11T16:47:28;101772.78;;;5.53;80.93
19114;BME280;9689;51.052;13.772;2023-02-11T16:52:32;101771.66;;;5.42;81.68
19114;BME280;9689;51.052;13.772;2023-02-11T16:57:33;101774.84;;;5.32;82.73
19114;BME280;9689;51.052;13.772;2023-02-11T17:02:35;101780.78;;;5.29;83.87
19114;BME280;9689;51.052;13.772;2023-02-11T17:07:38;101783.25;;;5.23;84.91
19114;BME280;9689;51.052;13.772;2023-02-11T17:12:38;101792.50;;;5.15;85.32
19114;BME280;9689;51.052;13.772;2023-02-11T17:17:39;101799.28;;;5.11;86.79
19114;BME280;9689;51.052;13.772;2023-02-11T17:22:41;101785.56;;;5.13;86.68
19114;BME280;9689;51.052;13.772;2023-02-11T17:27:43;101795.75;;;5.08;87.23
19114;BME280;9689;51.052;13.772;2023-02-11T17:32:43;101811.22;;;5.06;87.56
19114;BME280;9689;51.052;13.772;2023-02-11T17:37:47;101825.22;;;5.15;87.26
19114;BME280;9689;51.052;13.772;2023-02-11T17:42:48;101814.25;;;5.23;85.43
19114;BME280;9689;51.052;13.772;2023-02-11T17:47:49;101794.72;;;5.34;84.80
19114;BME280;9689;51.052;13.772;2023-02-11T17:52:52;101817.09;;;5.32;85.91
19114;BME280;9689;51.052;13.772;2023-02-11T17:57:53;101824.03;;;5.35;85.77
19114;BME280;9689;51.052;13.772;2023-02-11T18:02:54;101828.28;;;5.33;86.36
19114;BME280;9689;51.052;13.772;2023-02-11T18:07:57;101833.28;;;5.27;86.68
19114;BME280;9689;51.052;13.772;2023-02-11T18:12:58;101851.19;;;5.19;87.99
19114;BME280;9689;51.052;13.772;2023-02-11T18:17:59;101857.16;;;5.17;88.49
19114;BME280;9689;51.052;13.772;2023-02-11T18:23:01;101845.09;;;5.17;89.11
19114;BME280;9689;51.052;13.772;2023-02-11T18:28:02;101867.50;;;5.17;88.91
19114;BME280;9689;51.052;13.772;2023-02-11T18:33:03;101867.34;;;5.12;89.07
19114;BME280;9689;51.052;13.772;2023-02-11T18:38:08;101874.16;;;5.08;89.23
19114;BME280;9689;51.052;13.772;2023-02-11T18:43:09;101867.28;;;5.09;89.44
19114;BME280;9689;51.052;13.772;2023-02-11T18:48:10;101885.31;;;5.07;89.55
19114;BME280;9689;51.052;13.772;2023-02-11T18:53:13;101900.16;;;5.15;89.67
19114;BME280;9689;51.052;13.772;2023-02-11T18:58:15;101896.69;;;5.13;89.76
19114;BME280;9689;51.052;13.772;2023-02-11T19:03:16;101898.41;;;5.14;90.12
19114;BME280;9689;51.052;13.772;2023-02-11T19:08:18;101912.22;;;5.14;90.37
19114;BME280;9689;51.052;13.772;2023-02-11T19:13:19;101916.38;;;5.09;90.87
19114;BME280;9689;51.052;13.772;2023-02-11T19:18:19;101926.78;;;5.12;90.83
19114;BME280;9689;51.052;13.772;2023-02-11T19:23:22;101942.44;;;5.17;90.51
19114;BME280;9689;51.052;13.772;2023-02-11T19:28:22;101943.44;;;5.22;90.42
19114;BME280;9689;51.052;13.772;2023-02-11T19:33:23;101949.41;;;5.21;90.36
19114;BME280;9689;51.052;13.772;2023-02-11T19:38:26;101955.44;;;5.20;90.67
19114;BME280;9689;51.052;13.772;2023-02-11T19:43:26;101958.88;;;5.20;89.83
19114;BME280;9689;51.052;13.772;2023-02-11T19:48:27;101948.72;;;5.26;89.98
19114;BME280;9689;51.052;13.772;2023-02-11T19:53:30;101963.38;;;5.26;90.41
19114;BME280;9689;51.052;13.772;2023-02-11T19:58:30;101978.19;;;5.31;89.41
19114;BME280;9689;51.052;13.772;2023-02-11T20:03:31;101975.63;;;5.33;90.10
19114;BME280;9689;51.052;13.772;2023-02-11T20:08:34;101982.50;;;5.32;90.06
19114;BME280;9689;51.052;13.772;2023-02-11T20:13:35;101995.25;;;5.26;90.16
19114;BME280;9689;51.052;13.772;2023-02-11T20:18:37;102003.81;;;5.24;89.74
19114;BME280;9689;51.052;13.772;2023-02-11T20:23:39;102004.75;;;5.27;90.25
19114;BME280;9689;51.052;13.772;2023-02-11T20:28:40;101991.75;;;5.24;90.09
19114;BME280;9689;51.052;13.772;2023-02-11T20:33:42;102006.28;;;5.21;90.27
19114;BME280;9689;51.052;13.772;2023-02-11T20:38:44;101991.75;;;5.24;90.17
19114;BME280;9689;51.052;13.772;2023-02-11T20:43:47;101983.97;;;5.23;90.73
19114;BME280;9689;51.052;13.772;2023-02-11T20:48:48;101981.50;;;5.27;90.62
19114;BME280;9689;51.052;13.772;2023-02-11T20:53:51;101977.19;;;5.28;90.46
19114;BME280;9689;51.052;13.772;2023-02-11T20:58:52;101968.56;;;5.27;90.41
19114;BME280;9689;51.052;13.772;2023-02-11T21:03:55;101979.00;;;5.30;90.00
19114;BME280;9689;51.052;13.772;2023-02-11T21:08:58;101983.28;;;5.30;90.15
19114;BME280;9689;51.052;13.772;2023-02-11T21:14:00;101985.00;;;5.29;90.93
19114;BME280;9689;51.052;13.772;2023-02-11T21:19:01;101993.69;;;5.31;90.66
19114;BME280;9689;51.052;13.772;2023-02-11T21:24:04;101993.84;;;5.37;90.22
19114;BME280;9689;51.052;13.772;2023-02-11T21:29:06;102007.72;;;5.39;90.58
19114;BME280;9689;51.052;13.772;2023-02-11T21:34:09;102005.19;;;5.43;90.04
19114;BME280;9689;51.052;13.772;2023-02-11T21:39:12;102012.19;;;5.47;89.75
19114;BME280;9689;51.052;13.772;2023-02-11T21:44:13;102021.72;;;5.48;89.97
19114;BME280;9689;51.052;13.772;2023-02-11T21:49:14;102026.94;;;5.49;90.02
19114;BME280;9689;51.052;13.772;2023-02-11T21:54:16;102032.16;;;5.51;90.10
19114;BME280;9689;51.052;13.772;2023-02-11T21:59:17;102036.44;;;5.50;90.76
19114;BME280;9689;51.052;13.772;2023-02-11T22:04:18;102049.41;;;5.52;90.19
19114;BME280;9689;51.052;13.772;2023-02-11T22:09:20;102043.41;;;5.53;91.22
19114;BME280;9689;51.052;13.772;2023-02-11T22:14:20;102051.91;;;5.49;91.09
19114;BME280;9689;51.052;13.772;2023-02-11T22:19:21;102048.50;;;5.50;90.70
19114;BME280;9689;51.052;13.772;2023-02-11T22:24:24;102057.13;;;5.50;90.21
19114;BME280;9689;51.052;13.772;2023-02-11T22:29:25;102064.63;;;5.41;90.67
19114;BME280;9689;51.052;13.772;2023-02-11T22:34:26;102070.03;;;5.49;90.62
19114;BME280;9689;51.052;13.772;2023-02-11T22:39:28;102075.31;;;5.53;90.64
19114;BME280;9689;51.052;13.772;2023-02-11T22:44:29;102067.69;;;5.58;89.97
19114;BME280;9689;51.052;13.772;2023-02-11T22:49:30;102072.13;;;5.62;90.83
19114;BME280;9689;51.052;13.772;2023-02-11T22:54:33;102089.38;;;5.63;90.18
19114;BME280;9689;51.052;13.772;2023-02-11T22:59:34;102095.31;;;5.59;90.21
19114;BME280;9689;51.052;13.772;2023-02-11T23:04:35;102109.16;;;5.61;90.41
19114;BME280;9689;51.052;13.772;2023-02-11T23:09:37;102110.94;;;5.63;90.10
19114;BME280;9689;51.052;13.772;2023-02-11T23:14:38;102117.88;;;5.64;90.46
19114;BME280;9689;51.052;13.772;2023-02-11T23:19:38;102115.38;;;5.67;89.55
19114;BME280;9689;51.052;13.772;2023-02-11T23:24:40;102117.97;;;5.67;90.27
19114;BME280;9689;51.052;13.772;2023-02-11T23:29:41;102119.72;;;5.68;90.43
19114;BME280;9689;51.052;13.772;2023-02-11T23:34:42;102129.28;;;5.71;89.31
19114;BME280;9689;51.052;13.772;2023-02-11T23:39:44;102127.69;;;5.75;89.65
19114;BME280;9689;51.052;13.772;2023-02-11T23:44:45;102124.94;;;5.70;89.24
19114;BME280;9689;51.052;13.772;2023-02-11T23:49:46;102129.31;;;5.73;89.93
19114;BME280;9689;51.052;13.772;2023-02-11T23:54:48;102130.34;;;5.78;89.61
19114;BME280;9689;51.052;13.772;2023-02-11T23:59:48;102124.31;;;5.79;89.37
